Time;durP1;ratioP1;P1;durP2;ratioP2;P2;SDS_P1;SDS_P2;PMS_P1;PMS_P2;Temp;Humidity;BMP_temperature;BMP_pressure;BME280_temperature;BME280_humidity;BME280_pressure;Samples;Min_cycle;Max_cycle;Signal;HPM_P1;HPM_P2
2022/12/15 00:40:13;;;;;;;5.63;3.73;;;;;;;;;;4404913;32;386920;-81
2022/12/15 00:42:41;;;;;;;11.53;4.47;;;;;;;;;;4407791;32;315578;-79
2022/12/15 00:45:09;;;;;;;6.60;4.33;;;;;;;;;;4402244;32;337538;-77
2022/12/15 00:47:36;;;;;;;8.57;6.20;;;;;;;;;;4407551;32;316095;-79
2022/12/15 01:20:20;;;;;;;11.67;5.43;;;;;;;;;;4415525;32;316701;-82
2022/12/15 01:22:50;;;;;;;11.97;6.47;;;;;;;;;;4406293;32;317658;-83
2022/12/15 01:25:21;;;;;;;11.73;5.30;;;;;;;;;;4414818;32;342650;-83
2022/12/15 01:27:48;;;;;;;13.83;5.70;;;;;;;;;;4403300;32;333142;-82
2022/12/15 01:30:19;;;;;;;8.00;4.50;;;;;;;;;;4416789;32;318646;-83
2022/12/15 01:32:47;;;;;;;5.57;4.07;;;;;;;;;;4406334;32;316764;-78
2022/12/15 01:35:15;;;;;;;5.57;3.73;;;;;;;;;;4414221;32;316669;-83
2022/12/15 01:37:42;;;;;;;6.30;4.47;;;;;;;;;;4404826;32;316575;-78
2022/12/15 01:43:00;;;;;;;10.20;4.70;;;;;;;;;;4404490;32;386945;-82
2022/12/15 01:46:01;;;;;;;8.97;4.43;;;;;;;;;;4415931;32;317720;-78
2022/12/15 01:48:42;;;;;;;6.77;4.30;;;;;;;;;;4412920;32;419053;-81
2022/12/15 01:51:17;;;;;;;8.83;5.30;;;;;;;;;;4404040;32;417346;-82
2022/12/15 01:53:53;;;;;;;6.93;4.90;;;;;;;;;;4407067;32;316541;-83
2022/12/15 01:56:23;;;;;;;10.53;7.33;;;;;;;;;;4416462;32;316866;-79
2022/12/15 01:58:56;;;;;;;9.20;6.03;;;;;;;;;;4404838;32;317863;-82
2022/12/15 02:01:23;;;;;;;8.50;7.13;;;;;;;;;;4414644;32;316532;-82
2022/12/15 02:03:51;;;;;;;9.13;6.70;;;;;;;;;;4406112;32;316712;-82
2022/12/15 02:06:21;;;;;;;11.43;7.60;;;;;;;;;;4416968;32;316757;-81
2022/12/15 02:08:51;;;;;;;13.73;8.77;;;;;;;;;;4406287;32;317628;-81
2022/12/15 02:11:50;;;;;;;17.37;9.57;;;;;;;;;;4416619;32;317722;-79
2022/12/15 02:14:25;;;;;;;13.83;9.57;;;;;;;;;;4398063;32;417931;-81
2022/12/15 02:17:05;;;;;;;19.67;11.80;;;;;;;;;;4406777;32;317781;-81
2022/12/15 02:20:23;;;;;;;15.43;9.20;;;;;;;;;;4405485;32;319127;-80
2022/12/15 02:23:43;;;;;;;18.83;9.60;;;;;;;;;;4308493;32;318470;-81
2022/12/15 02:26:43;;;;;;;27.57;13.10;;;;;;;;;;4371852;32;418391;-79
2022/12/15 02:29:28;;;;;;;20.53;12.80;;;;;;;;;;4372522;32;419033;-82
2022/12/15 02:32:01;;;;;;;17.57;9.73;;;;;;;;;;4372238;32;422648;-81
2022/12/15 02:34:38;;;;;;;11.07;8.00;;;;;;;;;;4385561;32;317827;-78
2022/12/15 02:37:10;;;;;;;13.93;9.93;;;;;;;;;;4371868;32;420902;-82
2022/12/15 02:39:37;;;;;;;17.83;9.20;;;;;;;;;;4376969;32;317661;-83
2022/12/15 02:42:05;;;;;;;10.50;8.57;;;;;;;;;;4388839;32;318130;-83
2022/12/15 02:44:38;;;;;;;12.70;7.50;;;;;;;;;;4379282;32;317960;-83
2022/12/15 02:47:17;;;;;;;14.40;8.67;;;;;;;;;;4388278;32;318085;-83
2022/12/15 02:49:59;;;;;;;10.80;8.43;;;;;;;;;;4378848;32;318070;-84
2022/12/15 02:52:41;;;;;;;12.70;8.30;;;;;;;;;;4386660;32;317821;-84
2022/12/15 02:55:15;;;;;;;17.13;10.47;;;;;;;;;;4373907;32;418030;-78
2022/12/15 02:57:52;;;;;;;16.17;10.77;;;;;;;;;;4379246;32;318826;-84
2022/12/15 03:00:20;;;;;;;19.10;11.10;;;;;;;;;;4387915;32;318777;-82
2022/12/15 03:02:52;;;;;;;13.80;10.60;;;;;;;;;;4376041;32;318859;-83
2022/12/15 03:05:21;;;;;;;15.10;10.07;;;;;;;;;;4386338;32;318744;-84
2022/12/15 03:07:50;;;;;;;15.50;10.27;;;;;;;;;;4378595;32;318832;-83
2022/12/15 03:10:20;;;;;;;17.30;10.43;;;;;;;;;;4388875;32;318708;-83
2022/12/15 03:12:49;;;;;;;16.13;10.70;;;;;;;;;;4378058;32;318744;-83
2022/12/15 03:15:16;;;;;;;15.30;10.53;;;;;;;;;;4388886;32;318655;-78
2022/12/15 03:17:45;;;;;;;14.90;9.27;;;;;;;;;;4378427;32;318826;-84
2022/12/15 03:20:14;;;;;;;15.63;9.90;;;;;;;;;;4388821;32;318003;-84
2022/12/15 03:22:43;;;;;;;15.23;9.43;;;;;;;;;;4401433;32;317874;-82
2022/12/15 03:25:10;;;;;;;11.40;8.07;;;;;;;;;;4418027;32;318229;-83
2022/12/15 03:27:38;;;;;;;12.10;7.73;;;;;;;;;;4408509;32;317590;-84
2022/12/15 03:30:07;;;;;;;15.90;11.33;;;;;;;;;;4417413;32;317670;-78
2022/12/15 03:32:34;;;;;;;16.40;11.37;;;;;;;;;;4407321;32;318847;-79
2022/12/15 03:35:02;;;;;;;15.10;11.27;;;;;;;;;;4418883;32;318958;-84
2022/12/15 03:37:31;;;;;;;12.93;8.30;;;;;;;;;;4418427;32;318612;-82
2022/12/15 03:39:58;;;;;;;21.33;10.10;;;;;;;;;;4405863;32;416975;-84
2022/12/15 03:45:07;;;;;;;16.57;9.73;;;;;;;;;;4403143;32;389333;-83
2022/12/15 03:47:35;;;;;;;18.27;9.80;;;;;;;;;;4407980;32;317998;-82
2022/12/15 03:50:02;;;;;;;14.73;9.80;;;;;;;;;;4417644;32;317672;-83
2022/12/15 03:52:32;;;;;;;13.38;9.35;;;;;;;;;;4413658;32;317960;-83
2022/12/15 03:54:59;;;;;;;10.57;7.73;;;;;;;;;;4418100;32;318026;-83
2022/12/15 03:57:27;;;;;;;14.17;8.73;;;;;;;;;;4417199;32;317830;-83
2022/12/15 03:59:55;;;;;;;10.50;8.17;;;;;;;;;;4406588;32;317448;-82
2022/12/15 04:02:22;;;;;;;14.07;8.93;;;;;;;;;;4417774;32;317828;-79
2022/12/15 04:04:49;;;;;;;16.00;10.90;;;;;;;;;;4406897;32;317742;-81
2022/12/15 04:07:17;;;;;;;13.80;10.97;;;;;;;;;;4418160;32;318749;-83
2022/12/15 04:09:46;;;;;;;14.17;10.03;;;;;;;;;;4405263;32;318916;-79
2022/12/15 04:12:14;;;;;;;22.57;16.33;;;;;;;;;;4417061;32;318993;-82
2022/12/15 04:14:41;;;;;;;18.83;10.70;;;;;;;;;;4407764;32;318932;-78
2022/12/15 04:17:09;;;;;;;14.37;10.33;;;;;;;;;;4417828;32;318665;-83
2022/12/15 04:22:21;;;;;;;19.37;11.30;;;;;;;;;;4417468;32;318651;-83
2022/12/15 05:33:39;;;;;;;9.70;7.00;;;;;;;;;;4404413;32;319036;-84
2022/12/15 05:36:07;;;;;;;9.40;6.87;;;;;;;;;;4416578;32;316733;-80
2022/12/15 05:38:34;;;;;;;17.97;10.40;;;;;;;;;;4405057;32;364020;-83
2022/12/15 05:41:02;;;;;;;13.07;10.00;;;;;;;;;;4415440;32;318704;-81
2022/12/15 05:43:30;;;;;;;20.70;13.43;;;;;;;;;;4415670;32;318648;-82
2022/12/15 05:46:03;;;;;;;29.00;18.20;;;;;;;;;;4402968;32;418328;-79
2022/12/15 05:48:30;;;;;;;48.70;30.27;;;;;;;;;;4404812;32;318553;-81
2022/12/15 05:50:58;;;;;;;61.10;34.43;;;;;;;;;;4415140;32;318883;-85
2022/12/15 05:53:25;;;;;;;53.90;36.00;;;;;;;;;;4416569;32;318709;-83
2022/12/15 05:55:53;;;;;;;54.53;32.77;;;;;;;;;;4404432;32;319132;-83
2022/12/15 05:58:20;;;;;;;54.23;34.43;;;;;;;;;;4415983;32;318715;-83
2022/12/15 06:00:48;;;;;;;73.97;43.03;;;;;;;;;;4403265;32;318732;-83
2022/12/15 06:03:17;;;;;;;84.03;49.87;;;;;;;;;;4415467;32;318914;-85
2022/12/15 06:05:44;;;;;;;80.30;52.40;;;;;;;;;;4405280;32;318778;-82
2022/12/15 06:08:12;;;;;;;83.40;51.83;;;;;;;;;;4413183;32;318905;-84
2022/12/15 06:10:39;;;;;;;77.50;50.90;;;;;;;;;;4404822;32;319218;-83
2022/12/15 06:13:07;;;;;;;92.10;58.07;;;;;;;;;;4413330;32;318688;-84
2022/12/15 06:15:35;;;;;;;86.53;58.73;;;;;;;;;;4404771;32;318846;-83
2022/12/15 06:18:02;;;;;;;87.53;55.77;;;;;;;;;;4415397;32;319162;-82
2022/12/15 06:20:32;;;;;;;80.30;49.60;;;;;;;;;;4397341;32;318832;-89
2022/12/15 06:22:59;;;;;;;68.23;45.63;;;;;;;;;;4416320;32;318605;-80
2022/12/15 06:25:27;;;;;;;61.53;39.20;;;;;;;;;;4415993;32;319185;-81
2022/12/15 06:27:54;;;;;;;57.57;37.37;;;;;;;;;;4404604;32;318671;-82
2022/12/15 06:30:22;;;;;;;56.80;38.97;;;;;;;;;;4414985;32;318995;-84
2022/12/15 06:32:49;;;;;;;50.43;36.53;;;;;;;;;;4405032;32;318819;-84
2022/12/15 06:35:17;;;;;;;66.50;40.03;;;;;;;;;;4415751;32;318829;-84
2022/12/15 06:37:49;;;;;;;72.77;40.07;;;;;;;;;;4404232;32;318970;-84
2022/12/15 06:40:16;;;;;;;66.30;43.30;;;;;;;;;;4413991;32;318818;-84
2022/12/15 06:42:44;;;;;;;62.60;41.57;;;;;;;;;;4403832;32;318815;-84
2022/12/15 06:45:12;;;;;;;62.40;43.10;;;;;;;;;;4413360;32;318813;-85
2022/12/15 06:47:39;;;;;;;73.50;46.80;;;;;;;;;;4405397;32;318944;-77
2022/12/15 06:50:07;;;;;;;67.57;44.23;;;;;;;;;;4414539;32;318906;-80
2022/12/15 06:52:35;;;;;;;71.50;47.70;;;;;;;;;;4406719;32;318923;-94
2022/12/15 06:55:04;;;;;;;75.70;46.63;;;;;;;;;;4418775;32;318746;-88
2022/12/15 06:57:32;;;;;;;73.70;51.13;;;;;;;;;;4403130;32;319282;-88
2022/12/15 07:00:00;;;;;;;87.60;47.90;;;;;;;;;;4400847;32;319046;-77
2022/12/15 07:02:28;;;;;;;76.40;47.37;;;;;;;;;;4416647;32;319018;-87
2022/12/15 07:04:56;;;;;;;71.73;48.43;;;;;;;;;;4401092;32;418397;-90
2022/12/15 07:07:24;;;;;;;77.87;53.20;;;;;;;;;;4415417;32;318485;-80
2022/12/15 07:09:51;;;;;;;94.27;56.60;;;;;;;;;;4403637;32;318712;-85
2022/12/15 07:12:20;;;;;;;82.33;54.30;;;;;;;;;;4414503;32;318841;-83
2022/12/15 07:14:48;;;;;;;75.17;50.13;;;;;;;;;;4403393;32;318915;-86
2022/12/15 07:17:15;;;;;;;69.23;48.53;;;;;;;;;;4414983;32;318812;-87
2022/12/15 07:19:43;;;;;;;82.97;53.33;;;;;;;;;;4402213;32;318822;-84
2022/12/15 07:22:11;;;;;;;74.17;50.13;;;;;;;;;;4414872;32;332090;-77
2022/12/15 07:24:38;;;;;;;70.80;48.90;;;;;;;;;;4402746;32;318857;-82
2022/12/15 07:27:05;;;;;;;69.27;48.40;;;;;;;;;;4418066;32;318961;-79
2022/12/15 07:29:34;;;;;;;65.23;45.07;;;;;;;;;;4404225;32;319106;-80
2022/12/15 07:32:02;;;;;;;102.50;59.07;;;;;;;;;;4416684;32;318842;-86
2022/12/15 07:34:29;;;;;;;118.93;75.17;;;;;;;;;;4405012;32;319678;-78
2022/12/15 07:36:57;;;;;;;103.53;67.03;;;;;;;;;;4404416;32;419310;-85
2022/12/15 07:39:26;;;;;;;107.47;75.80;;;;;;;;;;4417577;32;319977;-80
2022/12/15 07:41:55;;;;;;;89.97;60.93;;;;;;;;;;4407033;32;319826;-85
2022/12/15 07:44:23;;;;;;;97.23;61.73;;;;;;;;;;4417819;32;318961;-84
2022/12/15 07:46:54;;;;;;;100.50;65.80;;;;;;;;;;4407800;32;318972;-85
2022/12/15 07:49:23;;;;;;;125.30;82.07;;;;;;;;;;4416932;32;319878;-84
2022/12/15 07:51:51;;;;;;;146.37;90.43;;;;;;;;;;4407295;32;319874;-85
2022/12/15 07:54:19;;;;;;;151.13;90.27;;;;;;;;;;4418697;32;319779;-85
2022/12/15 07:56:46;;;;;;;142.70;87.27;;;;;;;;;;4409255;32;320003;-84
2022/12/15 07:59:15;;;;;;;135.17;86.03;;;;;;;;;;4403587;32;319928;-84
2022/12/15 08:01:42;;;;;;;138.03;79.03;;;;;;;;;;4397827;32;319791;-85
2022/12/15 08:04:12;;;;;;;115.40;74.90;;;;;;;;;;4415345;32;319742;-79
2022/12/15 08:06:40;;;;;;;103.20;67.60;;;;;;;;;;4408348;32;319854;-85
2022/12/15 08:09:08;;;;;;;96.00;60.33;;;;;;;;;;4417596;32;319996;-86
2022/12/15 08:11:35;;;;;;;81.83;55.23;;;;;;;;;;4407185;32;318835;-86
2022/12/15 08:14:03;;;;;;;90.50;59.40;;;;;;;;;;4418341;32;352091;-86
2022/12/15 08:16:33;;;;;;;83.60;58.07;;;;;;;;;;4407540;32;319070;-83
2022/12/15 08:19:00;;;;;;;87.20;59.67;;;;;;;;;;4415839;32;319061;-80
2022/12/15 08:21:30;;;;;;;95.93;61.73;;;;;;;;;;4417076;32;319087;-85
2022/12/15 08:23:57;;;;;;;103.80;71.03;;;;;;;;;;4402564;32;418118;-81
2022/12/15 08:26:24;;;;;;;104.63;72.40;;;;;;;;;;4417338;32;319975;-84
2022/12/15 08:28:52;;;;;;;91.43;63.43;;;;;;;;;;4402280;32;337321;-83
2022/12/15 08:31:22;;;;;;;90.47;61.27;;;;;;;;;;4415845;32;318592;-80
2022/12/15 08:33:50;;;;;;;86.03;61.23;;;;;;;;;;4404027;32;349550;-83
2022/12/15 08:36:19;;;;;;;92.60;60.77;;;;;;;;;;4417108;32;318914;-81
2022/12/15 08:38:48;;;;;;;92.57;60.17;;;;;;;;;;4404335;32;318995;-84
2022/12/15 08:41:19;;;;;;;94.50;62.63;;;;;;;;;;4416842;32;319106;-89
2022/12/15 08:43:48;;;;;;;88.43;61.57;;;;;;;;;;4406865;32;318029;-92
2022/12/15 08:46:16;;;;;;;88.90;62.90;;;;;;;;;;4416056;32;318699;-87
2022/12/15 08:48:44;;;;;;;78.87;55.40;;;;;;;;;;4407605;32;318838;-85
2022/12/15 08:51:11;;;;;;;73.20;52.33;;;;;;;;;;4397027;32;417903;-84
2022/12/15 08:53:39;;;;;;;46.50;35.90;;;;;;;;;;4416150;32;318813;-87
2022/12/15 08:56:12;;;;;;;28.00;21.03;;;;;;;;;;4404832;32;318897;-90
2022/12/15 08:58:39;;;;;;;46.60;34.00;;;;;;;;;;4417588;32;318621;-90
2022/12/15 09:01:09;;;;;;;48.90;30.40;;;;;;;;;;4405001;32;318825;-89
2022/12/15 09:03:37;;;;;;;41.43;26.13;;;;;;;;;;4416644;32;318650;-86
2022/12/15 09:06:05;;;;;;;45.13;29.90;;;;;;;;;;4406853;32;318871;-80
2022/12/15 09:08:33;;;;;;;48.70;32.70;;;;;;;;;;4417250;32;319099;-83
2022/12/15 09:11:04;;;;;;;42.60;29.83;;;;;;;;;;4407673;32;318825;-87
2022/12/15 09:13:33;;;;;;;44.30;32.53;;;;;;;;;;4417505;32;319124;-87
2022/12/15 09:16:04;;;;;;;43.10;31.13;;;;;;;;;;4407287;32;318922;-90
2022/12/15 09:18:32;;;;;;;37.57;26.77;;;;;;;;;;4416954;32;319108;-90
2022/12/15 09:21:02;;;;;;;33.03;23.13;;;;;;;;;;4406702;32;318522;-79
2022/12/15 09:23:30;;;;;;;70.47;41.73;;;;;;;;;;4416118;32;319019;-91
2022/12/15 09:26:00;;;;;;;51.83;32.23;;;;;;;;;;4405231;32;318652;-90
2022/12/15 09:28:30;;;;;;;46.20;31.80;;;;;;;;;;4415183;32;318817;-85
2022/12/15 09:31:05;;;;;;;36.93;27.33;;;;;;;;;;4405108;32;318777;-82
2022/12/15 09:33:32;;;;;;;36.47;25.13;;;;;;;;;;4416717;32;319419;-90
2022/12/15 09:36:00;;;;;;;35.97;23.60;;;;;;;;;;4405881;32;318860;-80
2022/12/15 09:38:28;;;;;;;36.20;28.13;;;;;;;;;;4416827;32;318927;-88
2022/12/15 09:40:56;;;;;;;45.47;31.07;;;;;;;;;;4402700;32;318868;-80
2022/12/15 09:43:26;;;;;;;37.30;27.30;;;;;;;;;;4417046;32;318738;-90
2022/12/15 09:46:04;;;;;;;37.30;25.80;;;;;;;;;;4405109;32;319015;-82
2022/12/15 09:48:40;;;;;;;30.60;23.50;;;;;;;;;;4416705;32;318660;-85
2022/12/15 09:51:12;;;;;;;30.70;23.77;;;;;;;;;;4402993;32;319481;-82
2022/12/15 09:53:40;;;;;;;36.70;26.50;;;;;;;;;;4416523;32;319260;-88
2022/12/15 09:56:13;;;;;;;41.40;23.73;;;;;;;;;;4402299;32;318732;-78
2022/12/15 09:58:50;;;;;;;35.83;24.37;;;;;;;;;;4416840;32;318682;-89
2022/12/15 10:01:28;;;;;;;42.63;28.77;;;;;;;;;;4402692;32;421091;-89
2022/12/15 10:04:05;;;;;;;490.50;212.70;;;;;;;;;;4403108;32;319058;-86
2022/12/15 10:06:35;;;;;;;161.03;73.83;;;;;;;;;;4415216;32;320785;-83
2022/12/15 10:09:09;;;;;;;176.80;76.50;;;;;;;;;;4405546;32;320195;-92
2022/12/15 10:11:45;;;;;;;68.33;44.10;;;;;;;;;;4415678;32;319752;-88
2022/12/15 10:14:22;;;;;;;56.03;38.10;;;;;;;;;;4402224;32;418143;-89
2022/12/15 10:16:57;;;;;;;44.07;34.10;;;;;;;;;;4403775;32;346492;-89
2022/12/15 10:19:36;;;;;;;36.90;26.50;;;;;;;;;;4415781;32;318674;-86
2022/12/15 10:22:04;;;;;;;29.20;20.97;;;;;;;;;;4402886;32;318879;-92
2022/12/15 10:24:33;;;;;;;42.00;25.20;;;;;;;;;;4415331;32;318915;-86
2022/12/15 10:27:16;;;;;;;65.63;34.93;;;;;;;;;;4404845;32;350939;-86
2022/12/15 10:29:45;;;;;;;117.97;53.13;;;;;;;;;;4416097;32;318732;-88
2022/12/15 10:32:18;;;;;;;44.57;27.93;;;;;;;;;;4399630;32;419346;-88
2022/12/15 10:34:47;;;;;;;42.50;30.90;;;;;;;;;;4407425;32;318632;-80
2022/12/15 10:37:18;;;;;;;41.23;27.13;;;;;;;;;;4415703;32;319038;-78
2022/12/15 10:39:48;;;;;;;31.80;22.00;;;;;;;;;;4404898;32;319016;-85
2022/12/15 10:42:19;;;;;;;27.70;21.00;;;;;;;;;;4414233;32;318739;-86
2022/12/15 10:44:49;;;;;;;38.93;25.93;;;;;;;;;;4405302;32;319029;-80
2022/12/15 10:47:21;;;;;;;40.77;25.33;;;;;;;;;;4413361;32;354696;-79
2022/12/15 10:49:51;;;;;;;37.83;26.67;;;;;;;;;;4403333;32;318658;-85
2022/12/15 10:52:23;;;;;;;41.10;26.30;;;;;;;;;;4414085;32;318983;-79
2022/12/15 10:54:53;;;;;;;35.93;26.60;;;;;;;;;;4390675;32;319475;-84
2022/12/15 10:57:26;;;;;;;38.37;27.07;;;;;;;;;;4407057;32;318800;-85
2022/12/15 10:59:56;;;;;;;32.07;24.57;;;;;;;;;;4404296;32;319101;-85
2022/12/15 11:02:31;;;;;;;45.93;33.37;;;;;;;;;;4419141;32;319203;-87
2022/12/15 11:05:01;;;;;;;55.27;33.00;;;;;;;;;;4407130;32;319010;-84
2022/12/15 11:07:35;;;;;;;34.20;25.60;;;;;;;;;;4418796;32;318870;-84
2022/12/15 11:10:14;;;;;;;56.57;36.93;;;;;;;;;;4408464;32;318947;-87
2022/12/15 11:12:50;;;;;;;52.40;34.53;;;;;;;;;;4421385;32;318649;-85
2022/12/15 11:15:40;;;;;;;47.27;33.27;;;;;;;;;;4406340;32;418264;-86
2022/12/15 11:18:14;;;;;;;45.10;33.57;;;;;;;;;;4400695;32;318763;-88
2022/12/15 11:20:50;;;;;;;39.40;30.53;;;;;;;;;;4418364;32;318641;-84
2022/12/15 11:23:21;;;;;;;42.50;31.63;;;;;;;;;;4374817;32;422469;-84
2022/12/15 11:25:55;;;;;;;43.50;31.73;;;;;;;;;;4376897;32;318886;-84
2022/12/15 11:28:29;;;;;;;42.87;32.33;;;;;;;;;;4387571;32;318713;-84
2022/12/15 11:31:12;;;;;;;46.30;31.97;;;;;;;;;;4377696;32;318778;-85
2022/12/15 11:33:39;;;;;;;53.03;33.63;;;;;;;;;;4387901;32;324616;-85
2022/12/15 11:36:18;;;;;;;62.90;46.47;;;;;;;;;;4377030;32;318856;-86
2022/12/15 11:38:51;;;;;;;69.43;47.97;;;;;;;;;;4387577;32;319047;-91
2022/12/15 11:41:33;;;;;;;59.23;40.83;;;;;;;;;;4373507;32;418121;-85
2022/12/15 11:44:20;;;;;;;52.83;41.03;;;;;;;;;;4373615;32;347918;-85
2022/12/15 11:46:55;;;;;;;61.50;47.40;;;;;;;;;;4374469;32;318897;-86
2022/12/15 11:49:40;;;;;;;66.43;45.93;;;;;;;;;;4387731;32;317758;-88
2022/12/15 11:52:16;;;;;;;59.97;41.57;;;;;;;;;;4377562;32;318910;-84
2022/12/15 11:54:48;;;;;;;57.97;40.93;;;;;;;;;;4387858;32;318710;-81
2022/12/15 11:57:41;;;;;;;58.43;42.87;;;;;;;;;;4373850;32;419356;-81
2022/12/15 12:00:14;;;;;;;52.93;40.90;;;;;;;;;;4375682;32;319038;-84
2022/12/15 12:03:07;;;;;;;57.60;42.27;;;;;;;;;;4387021;32;318635;-84
2022/12/15 12:06:00;;;;;;;67.90;49.53;;;;;;;;;;4373096;32;419283;-84
2022/12/15 12:08:50;;;;;;;73.27;52.27;;;;;;;;;;4374464;32;418976;-90
2022/12/15 12:11:21;;;;;;;62.50;43.50;;;;;;;;;;4373700;32;419209;-84
2022/12/15 12:14:07;;;;;;;55.30;39.23;;;;;;;;;;4376323;32;318912;-89
2022/12/15 12:16:42;;;;;;;60.53;40.23;;;;;;;;;;4387211;32;318895;-84
2022/12/15 12:19:14;;;;;;;57.23;42.67;;;;;;;;;;4375365;32;318931;-82
2022/12/15 12:21:46;;;;;;;49.47;36.57;;;;;;;;;;4396823;32;318812;-80
2022/12/15 12:24:21;;;;;;;55.47;39.37;;;;;;;;;;4404043;32;419098;-83
2022/12/15 12:26:57;;;;;;;43.43;31.80;;;;;;;;;;4406359;32;327188;-83
2022/12/15 12:29:31;;;;;;;48.30;35.70;;;;;;;;;;4416912;32;318684;-80
2022/12/15 12:32:05;;;;;;;45.73;34.97;;;;;;;;;;4406474;32;319267;-82
2022/12/15 12:34:44;;;;;;;48.30;34.80;;;;;;;;;;4417542;32;318665;-80
2022/12/15 12:37:20;;;;;;;46.63;34.60;;;;;;;;;;4404616;32;419240;-82
2022/12/15 12:39:52;;;;;;;38.80;28.50;;;;;;;;;;4406961;32;319155;-78
2022/12/15 12:42:25;;;;;;;38.17;28.43;;;;;;;;;;4416120;32;318877;-90
2022/12/15 12:44:52;;;;;;;43.00;29.17;;;;;;;;;;4406535;32;318987;-87
2022/12/15 12:47:23;;;;;;;26.23;16.93;;;;;;;;;;4415799;32;328153;-88
2022/12/15 12:49:55;;;;;;;31.93;25.10;;;;;;;;;;4406628;32;319270;-89
2022/12/15 12:52:24;;;;;;;30.40;22.30;;;;;;;;;;4418766;32;318736;-86
2022/12/15 12:55:00;;;;;;;19.90;14.87;;;;;;;;;;4407732;32;318992;-80
2022/12/15 12:57:41;;;;;;;13.77;10.33;;;;;;;;;;4416096;32;354210;-81
2022/12/15 13:00:19;;;;;;;14.93;9.37;;;;;;;;;;4406201;32;319004;-81
2022/12/15 13:02:57;;;;;;;9.30;6.20;;;;;;;;;;4406568;32;317867;-91
2022/12/15 13:05:31;;;;;;;10.30;7.47;;;;;;;;;;4417767;32;316820;-83
2022/12/15 13:08:31;;;;;;;11.87;7.73;;;;;;;;;;4406419;32;317966;-82
2022/12/15 13:11:47;;;;;;;34.67;23.27;;;;;;;;;;4399022;32;318154;-83
2022/12/15 13:14:19;;;;;;;50.40;32.00;;;;;;;;;;4367000;32;419354;-84
2022/12/15 13:16:49;;;;;;;47.30;29.60;;;;;;;;;;4406506;32;319173;-82
2022/12/15 13:19:55;;;;;;;19.77;14.60;;;;;;;;;;4417051;32;318872;-88
2022/12/15 13:22:25;;;;;;;14.37;9.90;;;;;;;;;;4402276;32;419384;-85
2022/12/15 13:24:52;;;;;;;93.87;52.07;;;;;;;;;;4405669;32;317863;-82
2022/12/15 13:27:22;;;;;;;199.77;104.43;;;;;;;;;;4414699;32;319157;-89
2022/12/15 13:30:00;;;;;;;791.33;476.43;;;;;;;;;;4406159;32;320848;-90
2022/12/15 13:32:32;;;;;;;801.63;485.07;;;;;;;;;;4414729;32;321044;-81
2022/12/15 13:35:15;;;;;;;191.97;110.70;;;;;;;;;;4405419;32;321156;-79
2022/12/15 13:37:47;;;;;;;211.93;123.83;;;;;;;;;;4415393;32;341937;-84
2022/12/15 13:40:32;;;;;;;165.33;101.93;;;;;;;;;;4403264;32;421624;-87
2022/12/15 13:43:33;;;;;;;114.87;86.23;;;;;;;;;;4405526;32;320958;-88
2022/12/15 13:46:09;;;;;;;137.93;87.33;;;;;;;;;;4405559;32;319985;-92
2022/12/15 13:48:41;;;;;;;100.80;62.90;;;;;;;;;;4414147;32;319823;-88
2022/12/15 13:51:24;;;;;;;120.87;75.47;;;;;;;;;;4405001;32;320163;-83
2022/12/15 13:53:57;;;;;;;220.17;118.57;;;;;;;;;;4405123;32;350453;-88
2022/12/15 13:56:55;;;;;;;155.43;88.60;;;;;;;;;;4415074;32;321198;-79
2022/12/15 13:59:41;;;;;;;93.07;52.10;;;;;;;;;;4398690;32;420203;-77
2022/12/15 14:02:24;;;;;;;54.77;40.23;;;;;;;;;;4404395;32;318896;-81
2022/12/15 14:05:13;;;;;;;68.60;42.67;;;;;;;;;;4405976;32;319062;-80
2022/12/15 14:07:43;;;;;;;72.37;42.57;;;;;;;;;;4413616;32;318785;-81
2022/12/15 14:10:19;;;;;;;114.13;63.50;;;;;;;;;;4403676;32;318771;-87
2022/12/15 14:12:48;;;;;;;112.57;64.43;;;;;;;;;;4405775;32;319808;-86
2022/12/15 14:15:20;;;;;;;67.80;44.77;;;;;;;;;;4415386;32;333290;-84
2022/12/15 14:17:51;;;;;;;57.93;41.50;;;;;;;;;;4405735;32;319097;-90
2022/12/15 14:20:21;;;;;;;75.50;47.87;;;;;;;;;;4416850;32;319273;-78
2022/12/15 14:22:51;;;;;;;67.90;45.90;;;;;;;;;;4405240;32;318984;-83
2022/12/15 14:25:21;;;;;;;63.63;45.17;;;;;;;;;;4416005;32;318842;-89
2022/12/15 14:27:49;;;;;;;68.67;44.80;;;;;;;;;;4405068;32;318703;-89
2022/12/15 14:30:23;;;;;;;78.43;51.83;;;;;;;;;;4416652;32;318840;-88
2022/12/15 14:32:54;;;;;;;81.93;53.77;;;;;;;;;;4390238;32;318866;-85
2022/12/15 14:35:28;;;;;;;77.17;51.53;;;;;;;;;;4409713;32;319148;-80
2022/12/15 14:37:58;;;;;;;82.83;52.90;;;;;;;;;;4405509;32;319088;-80
2022/12/15 14:40:26;;;;;;;73.97;51.30;;;;;;;;;;4415020;32;357638;-82
2022/12/15 14:42:54;;;;;;;79.23;55.57;;;;;;;;;;4405989;32;318829;-81
2022/12/15 14:45:28;;;;;;;74.87;54.07;;;;;;;;;;4415536;32;319050;-84
2022/12/15 14:47:58;;;;;;;87.03;63.50;;;;;;;;;;4384874;32;319149;-81
2022/12/15 14:50:26;;;;;;;89.93;62.40;;;;;;;;;;4415128;32;318786;-81
2022/12/15 14:52:58;;;;;;;76.73;52.90;;;;;;;;;;4405622;32;318900;-84
2022/12/15 14:55:33;;;;;;;76.03;52.50;;;;;;;;;;4414291;32;318946;-83
2022/12/15 14:58:00;;;;;;;75.43;50.33;;;;;;;;;;4403110;32;318751;-80
2022/12/15 15:00:32;;;;;;;72.47;48.57;;;;;;;;;;4415579;32;317827;-79
2022/12/15 15:03:17;;;;;;;67.87;49.47;;;;;;;;;;4403056;32;319011;-80
2022/12/15 15:05:46;;;;;;;75.07;53.57;;;;;;;;;;4415216;32;333859;-84
2022/12/15 15:08:17;;;;;;;79.83;56.83;;;;;;;;;;4401575;32;418624;-85
2022/12/15 15:10:44;;;;;;;96.00;62.00;;;;;;;;;;4412957;32;317815;-79
2022/12/15 15:13:19;;;;;;;97.27;62.53;;;;;;;;;;4401074;32;420671;-80
2022/12/15 15:15:54;;;;;;;96.90;62.47;;;;;;;;;;4405018;32;318898;-82
2022/12/15 15:18:27;;;;;;;94.50;67.67;;;;;;;;;;4415184;32;317803;-86
2022/12/15 15:20:59;;;;;;;120.50;79.27;;;;;;;;;;4404054;32;318676;-80
2022/12/15 15:23:26;;;;;;;127.47;86.60;;;;;;;;;;4413988;32;320132;-80
2022/12/15 15:25:55;;;;;;;120.90;81.07;;;;;;;;;;4403514;32;340849;-80
2022/12/15 15:28:26;;;;;;;94.83;65.63;;;;;;;;;;4414242;32;344675;-79
2022/12/15 15:30:56;;;;;;;110.40;74.60;;;;;;;;;;4403126;32;318806;-79
2022/12/15 15:33:25;;;;;;;95.87;68.80;;;;;;;;;;4414216;32;319696;-77
2022/12/15 15:35:55;;;;;;;94.03;60.37;;;;;;;;;;4402874;32;319329;-78
2022/12/15 15:38:25;;;;;;;81.57;56.53;;;;;;;;;;4414799;32;317889;-79
2022/12/15 15:40:55;;;;;;;96.27;63.27;;;;;;;;;;4403588;32;318794;-81
2022/12/15 15:43:23;;;;;;;101.57;65.10;;;;;;;;;;4415153;32;318667;-79
2022/12/15 15:45:55;;;;;;;93.53;64.37;;;;;;;;;;4406285;32;320097;-85
2022/12/15 15:48:30;;;;;;;89.77;61.50;;;;;;;;;;4417908;32;318874;-81
2022/12/15 15:50:57;;;;;;;91.33;59.77;;;;;;;;;;4406753;32;319505;-83
2022/12/15 15:53:26;;;;;;;82.10;62.23;;;;;;;;;;4418687;32;319069;-81
2022/12/15 15:55:55;;;;;;;88.23;65.07;;;;;;;;;;4410455;32;319052;-83
2022/12/15 15:58:23;;;;;;;95.93;68.20;;;;;;;;;;4420889;32;318821;-90
2022/12/15 16:00:52;;;;;;;101.30;68.03;;;;;;;;;;4408503;32;319028;-84
2022/12/15 16:03:20;;;;;;;108.37;75.40;;;;;;;;;;4418613;32;319773;-78
2022/12/15 16:05:49;;;;;;;117.93;78.43;;;;;;;;;;4409246;32;319856;-84
2022/12/15 16:08:19;;;;;;;106.57;71.50;;;;;;;;;;4418334;32;319765;-83
2022/12/15 16:10:48;;;;;;;114.60;73.60;;;;;;;;;;4416286;32;320080;-84
2022/12/15 16:13:18;;;;;;;114.57;74.97;;;;;;;;;;4419365;32;319713;-82
2022/12/15 16:15:46;;;;;;;131.40;78.73;;;;;;;;;;4422478;32;319812;-85
2022/12/15 16:18:13;;;;;;;113.23;79.73;;;;;;;;;;4407173;32;422005;-87
2022/12/15 16:20:43;;;;;;;137.60;88.77;;;;;;;;;;4417803;32;319774;-80
2022/12/15 16:23:16;;;;;;;135.93;90.17;;;;;;;;;;4409927;32;320359;-85
2022/12/15 16:25:45;;;;;;;129.67;87.50;;;;;;;;;;4420922;32;319878;-80
2022/12/15 16:28:14;;;;;;;124.77;84.00;;;;;;;;;;4410808;32;419279;-81
2022/12/15 16:30:42;;;;;;;119.97;81.67;;;;;;;;;;4421182;32;319764;-81
2022/12/15 16:33:10;;;;;;;122.13;82.60;;;;;;;;;;4407302;32;319926;-85
2022/12/15 16:35:38;;;;;;;164.07;112.13;;;;;;;;;;4420472;32;319965;-82
2022/12/15 16:38:06;;;;;;;169.60;110.70;;;;;;;;;;4410486;32;362460;-77
2022/12/15 16:40:38;;;;;;;150.43;100.50;;;;;;;;;;4422947;32;321053;-76
2022/12/15 16:43:14;;;;;;;126.90;81.70;;;;;;;;;;4407875;32;320827;-80
2022/12/15 16:45:44;;;;;;;103.83;70.27;;;;;;;;;;4416604;32;319762;-84
2022/12/15 16:48:12;;;;;;;112.27;75.70;;;;;;;;;;4404044;32;419339;-85
2022/12/15 16:50:41;;;;;;;121.77;84.00;;;;;;;;;;4416916;32;319827;-81
2022/12/15 16:53:16;;;;;;;141.87;87.87;;;;;;;;;;4406600;32;320116;-84
2022/12/15 16:55:46;;;;;;;117.33;81.73;;;;;;;;;;4417194;32;319829;-84
2022/12/15 16:58:16;;;;;;;129.43;84.67;;;;;;;;;;4403307;32;419236;-83